sensor_id;sensor_type;location;lat;lon;timestamp;pressure;altitude;pressure_sealevel;temperature
74750;BMP280;63269;53.330;-6.288;2023-04-25T00:00:28;101640.59;;;20.82
74750;BMP280;63269;53.330;-6.288;2023-04-25T00:02:54;101642.88;;;20.80
74750;BMP280;63269;53.330;-6.288;2023-04-25T00:05:22;101644.06;;;20.79
74750;BMP280;63269;53.330;-6.288;2023-04-25T00:07:49;101647.16;;;20.77
74750;BMP280;63269;53.330;-6.288;2023-04-25T00:10:14;101647.16;;;20.77
74750;BMP280;63269;53.330;-6.288;2023-04-25T00:12:40;101659.38;;;20.75
74750;BMP280;63269;53.330;-6.288;2023-04-25T00:15:07;101659.38;;;20.75
74750;BMP280;63269;53.330;-6.288;2023-04-25T00:17:32;101652.19;;;20.72
74750;BMP280;63269;53.330;-6.288;2023-04-25T00:19:57;101656.75;;;20.71
74750;BMP280;63269;53.330;-6.288;2023-04-25T00:22:23;101643.84;;;20.70
74750;BMP280;63269;53.330;-6.288;2023-04-25T00:24:49;101643.84;;;20.70
74750;BMP280;63269;53.330;-6.288;2023-04-25T00:27:15;101638.59;;;20.66
74750;BMP280;63269;53.330;-6.288;2023-04-25T00:29:41;101642.44;;;20.65
74750;BMP280;63269;53.330;-6.288;2023-04-25T00:32:06;101642.44;;;20.65
74750;BMP280;63269;53.330;-6.288;2023-04-25T00:34:31;101650.09;;;20.63
74750;BMP280;63269;53.330;-6.288;2023-04-25T00:36:57;101641.72;;;20.61
74750;BMP280;63269;53.330;-6.288;2023-04-25T00:39:22;101642.88;;;20.60
74750;BMP280;63269;53.330;-6.288;2023-04-25T00:41:48;101643.28;;;20.58
74750;BMP280;63269;53.330;-6.288;2023-04-25T00:44:15;101643.28;;;20.58
74750;BMP280;63269;53.330;-6.288;2023-04-25T00:46:42;101640.69;;;20.55
74750;BMP280;63269;53.330;-6.288;2023-04-25T00:49:07;101638.44;;;20.53
74750;BMP280;63269;53.330;-6.288;2023-04-25T00:51:33;101638.44;;;20.53
74750;BMP280;63269;53.330;-6.288;2023-04-25T00:54:00;101642.28;;;20.52
74750;BMP280;63269;53.330;-6.288;2023-04-25T00:56:25;101649.16;;;20.50
74750;BMP280;63269;53.330;-6.288;2023-04-25T00:58:53;101645.38;;;20.47
74750;BMP280;63269;53.330;-6.288;2023-04-25T01:01:22;101657.22;;;20.46
74750;BMP280;63269;53.330;-6.288;2023-04-25T01:03:49;101650.72;;;20.47
74750;BMP280;63269;53.330;-6.288;2023-04-25T01:06:17;101650.72;;;20.47
74750;BMP280;63269;53.330;-6.288;2023-04-25T01:08:42;101656.13;;;20.44
74750;BMP280;63269;53.330;-6.288;2023-04-25T01:11:08;101661.88;;;20.42
74750;BMP280;63269;53.330;-6.288;2023-04-25T01:13:34;101661.88;;;20.42
74750;BMP280;63269;53.330;-6.288;2023-04-25T01:16:00;101647.44;;;20.40
74750;BMP280;63269;53.330;-6.288;2023-04-25T01:18:26;101653.16;;;20.38
74750;BMP280;63269;53.330;-6.288;2023-04-25T01:20:52;101653.16;;;20.38
74750;BMP280;63269;53.330;-6.288;2023-04-25T01:23:22;101650.91;;;20.36
74750;BMP280;63269;53.330;-6.288;2023-04-25T01:25:50;101650.91;;;20.36
74750;BMP280;63269;53.330;-6.288;2023-04-25T01:28:16;101655.16;;;20.34
74750;BMP280;63269;53.330;-6.288;2023-04-25T01:30:42;101644.09;;;20.32
74750;BMP280;63269;53.330;-6.288;2023-04-25T01:33:08;101654.06;;;20.31
74750;BMP280;63269;53.330;-6.288;2023-04-25T01:35:34;101642.66;;;20.31
74750;BMP280;63269;53.330;-6.288;2023-04-25T01:37:59;101633.13;;;20.30
74750;BMP280;63269;53.330;-6.288;2023-04-25T01:40:25;101633.13;;;20.30
74750;BMP280;63269;53.330;-6.288;2023-04-25T01:42:52;101639.28;;;20.27
74750;BMP280;63269;53.330;-6.288;2023-04-25T01:45:18;101635.84;;;20.26
74750;BMP280;63269;53.330;-6.288;2023-04-25T01:47:44;101635.84;;;20.26
74750;BMP280;63269;53.330;-6.288;2023-04-25T01:50:15;101634.75;;;20.24
74750;BMP280;63269;53.330;-6.288;2023-04-25T01:52:41;101627.50;;;20.24
74750;BMP280;63269;53.330;-6.288;2023-04-25T01:55:07;101638.59;;;20.23
74750;BMP280;63269;53.330;-6.288;2023-04-25T01:57:32;101627.56;;;20.21
74750;BMP280;63269;53.330;-6.288;2023-04-25T02:00:00;101632.13;;;20.20
74750;BMP280;63269;53.330;-6.288;2023-04-25T02:02:26;101634.06;;;20.20
74750;BMP280;63269;53.330;-6.288;2023-04-25T02:04:52;101633.28;;;20.19
74750;BMP280;63269;53.330;-6.288;2023-04-25T02:07:17;101633.28;;;20.19
74750;BMP280;63269;53.330;-6.288;2023-04-25T02:09:43;101633.72;;;20.17
74750;BMP280;63269;53.330;-6.288;2023-04-25T02:12:09;101650.88;;;20.16
74750;BMP280;63269;53.330;-6.288;2023-04-25T02:14:35;101652.00;;;20.15
74750;BMP280;63269;53.330;-6.288;2023-04-25T02:17:00;101652.00;;;20.15
74750;BMP280;63269;53.330;-6.288;2023-04-25T02:19:26;101645.59;;;20.13
74750;BMP280;63269;53.330;-6.288;2023-04-25T02:21:51;101645.59;;;20.13
74750;BMP280;63269;53.330;-6.288;2023-04-25T02:24:17;101645.22;;;20.11
74750;BMP280;63269;53.330;-6.288;2023-04-25T02:26:42;101639.13;;;20.10
74750;BMP280;63269;53.330;-6.288;2023-04-25T02:29:09;101639.91;;;20.11
74750;BMP280;63269;53.330;-6.288;2023-04-25T02:31:34;101637.66;;;20.09
74750;BMP280;63269;53.330;-6.288;2023-04-25T02:33:59;101637.66;;;20.09
74750;BMP280;63269;53.330;-6.288;2023-04-25T02:36:25;101646.81;;;20.08
74750;BMP280;63269;53.330;-6.288;2023-04-25T02:38:51;101646.81;;;20.08
74750;BMP280;63269;53.330;-6.288;2023-04-25T02:41:17;101647.63;;;20.05
74750;BMP280;63269;53.330;-6.288;2023-04-25T02:43:43;101649.50;;;20.05
74750;BMP280;63269;53.330;-6.288;2023-04-25T02:46:08;101643.44;;;20.04
74750;BMP280;63269;53.330;-6.288;2023-04-25T02:48:33;101643.44;;;20.04
74750;BMP280;63269;53.330;-6.288;2023-04-25T02:50:59;101637.34;;;20.04
74750;BMP280;63269;53.330;-6.288;2023-04-25T02:53:24;101644.97;;;20.02
74750;BMP280;63269;53.330;-6.288;2023-04-25T02:55:50;101644.97;;;20.02
74750;BMP280;63269;53.330;-6.288;2023-04-25T02:58:17;101638.91;;;20.01
74750;BMP280;63269;53.330;-6.288;2023-04-25T03:00:43;101638.91;;;20.01
74750;BMP280;63269;53.330;-6.288;2023-04-25T03:03:08;101641.22;;;19.99
74750;BMP280;63269;53.330;-6.288;2023-04-25T03:05:33;101637.06;;;19.98
74750;BMP280;63269;53.330;-6.288;2023-04-25T03:07:59;101637.06;;;19.98
74750;BMP280;63269;53.330;-6.288;2023-04-25T03:10:25;101641.28;;;19.95
74750;BMP280;63269;53.330;-6.288;2023-04-25T03:12:50;101627.22;;;19.95
74750;BMP280;63269;53.330;-6.288;2023-04-25T03:15:15;101626.47;;;19.94
74750;BMP280;63269;53.330;-6.288;2023-04-25T03:17:42;101626.47;;;19.94
74750;BMP280;63269;53.330;-6.288;2023-04-25T03:20:07;101629.50;;;19.93
74750;BMP280;63269;53.330;-6.288;2023-04-25T03:22:33;101628.03;;;19.92
74750;BMP280;63269;53.330;-6.288;2023-04-25T03:24:58;101625.38;;;19.92
74750;BMP280;63269;53.330;-6.288;2023-04-25T03:27:24;101629.94;;;19.91
74750;BMP280;63269;53.330;-6.288;2023-04-25T03:29:49;101631.84;;;19.91
74750;BMP280;63269;53.330;-6.288;2023-04-25T03:32:15;101631.84;;;19.91
74750;BMP280;63269;53.330;-6.288;2023-04-25T03:34:40;101636.81;;;19.89
74750;BMP280;63269;53.330;-6.288;2023-04-25T03:37:06;101632.63;;;19.88
74750;BMP280;63269;53.330;-6.288;2023-04-25T03:39:32;101644.78;;;19.89
74750;BMP280;63269;53.330;-6.288;2023-04-25T03:41:57;101650.53;;;19.87
74750;BMP280;63269;53.330;-6.288;2023-04-25T03:44:22;101646.34;;;19.86
74750;BMP280;63269;53.330;-6.288;2023-04-25T03:46:49;101641.81;;;19.87
74750;BMP280;63269;53.330;-6.288;2023-04-25T03:49:15;101636.09;;;19.85
74750;BMP280;63269;53.330;-6.288;2023-04-25T03:51:40;101642.19;;;19.85
74750;BMP280;63269;53.330;-6.288;2023-04-25T03:54:05;101642.56;;;19.84
74750;BMP280;63269;53.330;-6.288;2023-04-25T03:56:32;101647.91;;;19.84
74750;BMP280;63269;53.330;-6.288;2023-04-25T03:58:57;101648.31;;;19.82
74750;BMP280;63269;53.330;-6.288;2023-04-25T04:01:23;101638.84;;;19.81
74750;BMP280;63269;53.330;-6.288;2023-04-25T04:03:48;101636.19;;;19.81
74750;BMP280;63269;53.330;-6.288;2023-04-25T04:06:13;101643.38;;;19.81
74750;BMP280;63269;53.330;-6.288;2023-04-25T04:08:40;101635.78;;;19.79
74750;BMP280;63269;53.330;-6.288;2023-04-25T04:11:05;101641.88;;;19.80
74750;BMP280;63269;53.330;-6.288;2023-04-25T04:13:31;101642.28;;;19.78
74750;BMP280;63269;53.330;-6.288;2023-04-25T04:15:56;101643.06;;;19.79
74750;BMP280;63269;53.330;-6.288;2023-04-25T04:18:23;101634.31;;;19.78
74750;BMP280;63269;53.330;-6.288;2023-04-25T04:20:48;101640.81;;;19.77
74750;BMP280;63269;53.330;-6.288;2023-04-25T04:23:14;101639.28;;;19.76
74750;BMP280;63269;53.330;-6.288;2023-04-25T04:25:39;101636.63;;;19.76
74750;BMP280;63269;53.330;-6.288;2023-04-25T04:28:05;101634.34;;;19.74
74750;BMP280;63269;53.330;-6.288;2023-04-25T04:30:31;101634.34;;;19.74
74750;BMP280;63269;53.330;-6.288;2023-04-25T04:32:58;101641.59;;;19.74
74750;BMP280;63269;53.330;-6.288;2023-04-25T04:35:26;101641.97;;;19.72
74750;BMP280;63269;53.330;-6.288;2023-04-25T04:37:51;101636.31;;;19.70
74750;BMP280;63269;53.330;-6.288;2023-04-25T04:40:17;101646.94;;;19.70
74750;BMP280;63269;53.330;-6.288;2023-04-25T04:42:43;101648.91;;;19.70
74750;BMP280;63269;53.330;-6.288;2023-04-25T04:45:09;101646.94;;;19.70
74750;BMP280;63269;53.330;-6.288;2023-04-25T04:47:35;101652.69;;;19.69
74750;BMP280;63269;53.330;-6.288;2023-04-25T04:50:03;101646.59;;;19.68
74750;BMP280;63269;53.330;-6.288;2023-04-25T04:52:29;101649.66;;;19.67
74750;BMP280;63269;53.330;-6.288;2023-04-25T04:54:55;101645.09;;;19.67
74750;BMP280;63269;53.330;-6.288;2023-04-25T04:57:20;101645.50;;;19.66
74750;BMP280;63269;53.330;-6.288;2023-04-25T04:59:46;101645.50;;;19.66
74750;BMP280;63269;53.330;-6.288;2023-04-25T05:02:11;101652.75;;;19.65
74750;BMP280;63269;53.330;-6.288;2023-04-25T05:04:36;101647.81;;;19.64
74750;BMP280;63269;53.330;-6.288;2023-04-25T05:07:02;101650.47;;;19.64
74750;BMP280;63269;53.330;-6.288;2023-04-25T05:09:27;101652.38;;;19.63
74750;BMP280;63269;53.330;-6.288;2023-04-25T05:11:53;101652.38;;;19.63
74750;BMP280;63269;53.330;-6.288;2023-04-25T05:14:18;101658.84;;;19.62
74750;BMP280;63269;53.330;-6.288;2023-04-25T05:16:44;101658.09;;;19.62
74750;BMP280;63269;53.330;-6.288;2023-04-25T05:19:09;101661.19;;;19.60
74750;BMP280;63269;53.330;-6.288;2023-04-25T05:21:35;101663.06;;;19.60
74750;BMP280;63269;53.330;-6.288;2023-04-25T05:24:01;101665.00;;;19.59
74750;BMP280;63269;53.330;-6.288;2023-04-25T05:26:27;101671.44;;;19.58
74750;BMP280;63269;53.330;-6.288;2023-04-25T05:28:56;101669.19;;;19.56
74750;BMP280;63269;53.330;-6.288;2023-04-25T05:31:22;101668.03;;;19.57
74750;BMP280;63269;53.330;-6.288;2023-04-25T05:33:47;101669.59;;;19.55
74750;BMP280;63269;53.330;-6.288;2023-04-25T05:36:13;101669.59;;;19.55
74750;BMP280;63269;53.330;-6.288;2023-04-25T05:38:38;101670.75;;;19.54
74750;BMP280;63269;53.330;-6.288;2023-04-25T05:41:05;101674.19;;;19.54
74750;BMP280;63269;53.330;-6.288;2023-04-25T05:43:30;101677.22;;;19.53
74750;BMP280;63269;53.330;-6.288;2023-04-25T05:45:56;101675.72;;;19.52
74750;BMP280;63269;53.330;-6.288;2023-04-25T05:48:21;101670.38;;;19.52
74750;BMP280;63269;53.330;-6.288;2023-04-25T05:50:46;101673.03;;;19.52
74750;BMP280;63269;53.330;-6.288;2023-04-25T05:53:12;101683.69;;;19.52
74750;BMP280;63269;53.330;-6.288;2023-04-25T05:55:37;101675.72;;;19.52
74750;BMP280;63269;53.330;-6.288;2023-04-25T05:58:04;101677.25;;;19.49
74750;BMP280;63269;53.330;-6.288;2023-04-25T06:00:30;101679.19;;;19.49
74750;BMP280;63269;53.330;-6.288;2023-04-25T06:02:55;101683.34;;;19.50
74750;BMP280;63269;53.330;-6.288;2023-04-25T06:05:21;101686.38;;;19.48
74750;BMP280;63269;53.330;-6.288;2023-04-25T06:07:46;101685.66;;;19.48
74750;BMP280;63269;53.330;-6.288;2023-04-25T06:10:11;101687.91;;;19.49
74750;BMP280;63269;53.330;-6.288;2023-04-25T06:12:37;101691.69;;;19.52
74750;BMP280;63269;53.330;-6.288;2023-04-25T06:15:04;101698.13;;;19.54
74750;BMP280;63269;53.330;-6.288;2023-04-25T06:17:29;101702.66;;;19.57
74750;BMP280;63269;53.330;-6.288;2023-04-25T06:19:55;101696.53;;;19.61
74750;BMP280;63269;53.330;-6.288;2023-04-25T06:22:21;101696.13;;;19.62
74750;BMP280;63269;53.330;-6.288;2023-04-25T06:24:46;101701.81;;;19.64
74750;BMP280;63269;53.330;-6.288;2023-04-25T06:27:11;101689.59;;;19.67
74750;BMP280;63269;53.330;-6.288;2023-04-25T06:29:37;101696.38;;;19.71
74750;BMP280;63269;53.330;-6.288;2023-04-25T06:32:03;101695.19;;;19.76
74750;BMP280;63269;53.330;-6.288;2023-04-25T06:34:28;101700.44;;;19.80
74750;BMP280;63269;53.330;-6.288;2023-04-25T06:36:54;101706.47;;;19.84
74750;BMP280;63269;53.330;-6.288;2023-04-25T06:39:19;101705.72;;;19.87
74750;BMP280;63269;53.330;-6.288;2023-04-25T06:41:45;101709.06;;;19.91
74750;BMP280;63269;53.330;-6.288;2023-04-25T06:44:10;101695.75;;;19.91
74750;BMP280;63269;53.330;-6.288;2023-04-25T06:46:36;101701.38;;;19.96
74750;BMP280;63269;53.330;-6.288;2023-04-25T06:49:02;101705.13;;;19.99
74750;BMP280;63269;53.330;-6.288;2023-04-25T06:51:28;101702.81;;;20.01
74750;BMP280;63269;53.330;-6.288;2023-04-25T06:53:54;101701.25;;;20.04
74750;BMP280;63269;53.330;-6.288;2023-04-25T06:56:20;101701.63;;;20.06
74750;BMP280;63269;53.330;-6.288;2023-04-25T06:58:46;101695.16;;;20.07
74750;BMP280;63269;53.330;-6.288;2023-04-25T07:01:12;101695.16;;;20.07
74750;BMP280;63269;53.330;-6.288;2023-04-25T07:03:37;101699.25;;;20.11
74750;BMP280;63269;53.330;-6.288;2023-04-25T07:06:03;101696.16;;;20.16
74750;BMP280;63269;53.330;-6.288;2023-04-25T07:08:29;101696.16;;;20.16
74750;BMP280;63269;53.330;-6.288;2023-04-25T07:10:54;101695.75;;;20.18
74750;BMP280;63269;53.330;-6.288;2023-04-25T07:13:20;101688.78;;;20.24
74750;BMP280;63269;53.330;-6.288;2023-04-25T07:15:45;101694.06;;;20.28
74750;BMP280;63269;53.330;-6.288;2023-04-25T07:18:13;101683.00;;;20.29
74750;BMP280;63269;53.330;-6.288;2023-04-25T07:20:38;101684.84;;;20.32
74750;BMP280;63269;53.330;-6.288;2023-04-25T07:23:04;101689.38;;;20.35
74750;BMP280;63269;53.330;-6.288;2023-04-25T07:25:29;101684.38;;;20.37
74750;BMP280;63269;53.330;-6.288;2023-04-25T07:27:56;101687.41;;;20.40
74750;BMP280;63269;53.330;-6.288;2023-04-25T07:30:21;101691.56;;;20.41
74750;BMP280;63269;53.330;-6.288;2023-04-25T07:32:48;101696.44;;;20.46
74750;BMP280;63269;53.330;-6.288;2023-04-25T07:35:13;101692.63;;;20.47
74750;BMP280;63269;53.330;-6.288;2023-04-25T07:37:39;101693.72;;;20.49
74750;BMP280;63269;53.330;-6.288;2023-04-25T07:40:05;101693.72;;;20.49
74750;BMP280;63269;53.330;-6.288;2023-04-25T07:42:30;101695.16;;;20.54
74750;BMP280;63269;53.330;-6.288;2023-04-25T07:44:56;101698.56;;;20.54
74750;BMP280;63269;53.330;-6.288;2023-04-25T07:47:21;101702.34;;;20.57
74750;BMP280;63269;53.330;-6.288;2023-04-25T07:49:47;101701.94;;;20.58
74750;BMP280;63269;53.330;-6.288;2023-04-25T07:52:12;101701.94;;;20.58
74750;BMP280;63269;53.330;-6.288;2023-04-25T07:54:38;101705.38;;;20.59
74750;BMP280;63269;53.330;-6.288;2023-04-25T07:57:03;101700.72;;;20.63
74750;BMP280;63269;53.330;-6.288;2023-04-25T07:59:29;101695.75;;;20.65
74750;BMP280;63269;53.330;-6.288;2023-04-25T08:01:54;101702.56;;;20.66
74750;BMP280;63269;53.330;-6.288;2023-04-25T08:04:22;101702.56;;;20.66
74750;BMP280;63269;53.330;-6.288;2023-04-25T08:06:47;101700.66;;;20.67
74750;BMP280;63269;53.330;-6.288;2023-04-25T08:09:13;101702.91;;;20.68
74750;BMP280;63269;53.330;-6.288;2023-04-25T08:11:38;101703.25;;;20.70
74750;BMP280;63269;53.330;-6.288;2023-04-25T08:14:05;101703.25;;;20.70
74750;BMP280;63269;53.330;-6.288;2023-04-25T08:16:30;101699.09;;;20.69
74750;BMP280;63269;53.330;-6.288;2023-04-25T08:18:56;101699.09;;;20.69
74750;BMP280;63269;53.330;-6.288;2023-04-25T08:21:21;101702.16;;;20.68
74750;BMP280;63269;53.330;-6.288;2023-04-25T08:23:46;101704.06;;;20.67
74750;BMP280;63269;53.330;-6.288;2023-04-25T08:26:12;101703.31;;;20.67
74750;BMP280;63269;53.330;-6.288;2023-04-25T08:28:37;101703.31;;;20.67
74750;BMP280;63269;53.330;-6.288;2023-04-25T08:31:03;101704.88;;;20.64
74750;BMP280;63269;53.330;-6.288;2023-04-25T08:33:29;101706.47;;;20.62
74750;BMP280;63269;53.330;-6.288;2023-04-25T08:35:55;101706.47;;;20.62
74750;BMP280;63269;53.330;-6.288;2023-04-25T08:38:20;101715.25;;;20.58
74750;BMP280;63269;53.330;-6.288;2023-04-25T08:40:49;101714.16;;;20.56
74750;BMP280;63269;53.330;-6.288;2023-04-25T08:43:19;101713.81;;;20.54
74750;BMP280;63269;53.330;-6.288;2023-04-25T08:45:45;101707.78;;;20.50
74750;BMP280;63269;53.330;-6.288;2023-04-25T08:48:12;101718.44;;;20.50
74750;BMP280;63269;53.330;-6.288;2023-04-25T08:50:49;101718.44;;;20.50
74750;BMP280;63269;53.330;-6.288;2023-04-25T08:53:16;101708.63;;;20.47
74750;BMP280;63269;53.330;-6.288;2023-04-25T08:55:45;101704.84;;;20.44
74750;BMP280;63269;53.330;-6.288;2023-04-25T08:58:12;101704.09;;;20.44
74750;BMP280;63269;53.330;-6.288;2023-04-25T09:00:38;101704.09;;;20.44
74750;BMP280;63269;53.330;-6.288;2023-04-25T09:03:04;101706.41;;;20.42
74750;BMP280;63269;53.330;-6.288;2023-04-25T09:05:30;101701.88;;;20.38
74750;BMP280;63269;53.330;-6.288;2023-04-25T09:07:57;101703.41;;;20.40
74750;BMP280;63269;53.330;-6.288;2023-04-25T09:10:23;101703.41;;;20.40
74750;BMP280;63269;53.330;-6.288;2023-04-25T09:13:05;101702.72;;;20.35
74750;BMP280;63269;53.330;-6.288;2023-04-25T09:15:32;101701.59;;;20.33
74750;BMP280;63269;53.330;-6.288;2023-04-25T09:17:58;101701.59;;;20.33
74750;BMP280;63269;53.330;-6.288;2023-04-25T09:20:24;101704.25;;;20.33
74750;BMP280;63269;53.330;-6.288;2023-04-25T09:23:01;101707.34;;;20.31
74750;BMP280;63269;53.330;-6.288;2023-04-25T09:25:26;101712.66;;;20.31
74750;BMP280;63269;53.330;-6.288;2023-04-25T09:27:53;101702.81;;;20.28
74750;BMP280;63269;53.330;-6.288;2023-04-25T09:30:29;101702.81;;;20.28
74750;BMP280;63269;53.330;-6.288;2023-04-25T09:33:09;101703.97;;;20.27
74750;BMP280;63269;53.330;-6.288;2023-04-25T09:35:39;101715.03;;;20.26
74750;BMP280;63269;53.330;-6.288;2023-04-25T09:38:09;101704.78;;;20.24
74750;BMP280;63269;53.330;-6.288;2023-04-25T09:40:39;101714.69;;;20.24
74750;BMP280;63269;53.330;-6.288;2023-04-25T09:43:09;101710.97;;;20.17
74750;BMP280;63269;53.330;-6.288;2023-04-25T09:45:40;101709.41;;;20.20
74750;BMP280;63269;53.330;-6.288;2023-04-25T09:48:06;101709.41;;;20.20
74750;BMP280;63269;53.330;-6.288;2023-04-25T09:50:32;101710.53;;;20.19
74750;BMP280;63269;53.330;-6.288;2023-04-25T09:53:04;101717.06;;;20.18
74750;BMP280;63269;53.330;-6.288;2023-04-25T09:55:31;101709.81;;;20.18
74750;BMP280;63269;53.330;-6.288;2023-04-25T09:58:04;101711.75;;;20.18
74750;BMP280;63269;53.330;-6.288;2023-04-25T10:00:32;101723.53;;;20.17
74750;BMP280;63269;53.330;-6.288;2023-04-25T10:03:00;101723.53;;;20.17
74750;BMP280;63269;53.330;-6.288;2023-04-25T10:05:29;101717.84;;;20.15
74750;BMP280;63269;53.330;-6.288;2023-04-25T10:07:55;101721.69;;;20.14
74750;BMP280;63269;53.330;-6.288;2023-04-25T10:10:21;101718.25;;;20.13
74750;BMP280;63269;53.330;-6.288;2023-04-25T10:12:51;101722.09;;;20.12
74750;BMP280;63269;53.330;-6.288;2023-04-25T10:15:17;101722.09;;;20.12
74750;BMP280;63269;53.330;-6.288;2023-04-25T10:17:43;101714.88;;;20.09
74750;BMP280;63269;53.330;-6.288;2023-04-25T10:20:09;101727.81;;;20.11
74750;BMP280;63269;53.330;-6.288;2023-04-25T10:22:38;101727.81;;;20.11
74750;BMP280;63269;53.330;-6.288;2023-04-25T10:25:05;101717.56;;;20.09
74750;BMP280;63269;53.330;-6.288;2023-04-25T10:27:31;101720.59;;;20.08
74750;BMP280;63269;53.330;-6.288;2023-04-25T10:30:08;101721.38;;;20.08
74750;BMP280;63269;53.330;-6.288;2023-04-25T10:32:36;101719.13;;;20.07
74750;BMP280;63269;53.330;-6.288;2023-04-25T10:35:15;101727.53;;;20.05
74750;BMP280;63269;53.330;-6.288;2023-04-25T10:40:22;101715.75;;;20.03
74750;BMP280;63269;53.330;-6.288;2023-04-25T10:42:48;101720.31;;;20.02
74750;BMP280;63269;53.330;-6.288;2023-04-25T10:45:14;101710.81;;;20.01
74750;BMP280;63269;53.330;-6.288;2023-04-25T10:47:48;101710.81;;;20.01
74750;BMP280;63269;53.330;-6.288;2023-04-25T10:50:14;101708.56;;;20.00
74750;BMP280;63269;53.330;-6.288;2023-04-25T10:52:41;101717.72;;;19.98
74750;BMP280;63269;53.330;-6.288;2023-04-25T10:55:07;101721.50;;;19.97
74750;BMP280;63269;53.330;-6.288;2023-04-25T10:57:44;101718.09;;;19.97
74750;BMP280;63269;53.330;-6.288;2023-04-25T11:02:51;101720.41;;;19.95
74750;BMP280;63269;53.330;-6.288;2023-04-25T11:05:23;101720.41;;;19.95
74750;BMP280;63269;53.330;-6.288;2023-04-25T11:07:51;101712.81;;;19.93
74750;BMP280;63269;53.330;-6.288;2023-04-25T11:10:18;101712.81;;;19.93
74750;BMP280;63269;53.330;-6.288;2023-04-25T11:12:45;101704.09;;;19.93
74750;BMP280;63269;53.330;-6.288;2023-04-25T11:15:11;101704.09;;;19.93
74750;BMP280;63269;53.330;-6.288;2023-04-25T11:17:37;101706.41;;;19.91
74750;BMP280;63269;53.330;-6.288;2023-04-25T11:20:04;101706.41;;;19.91
74750;BMP280;63269;53.330;-6.288;2023-04-25T11:22:37;101699.56;;;19.90
74750;BMP280;63269;53.330;-6.288;2023-04-25T11:25:07;101698.78;;;19.89
74750;BMP280;63269;53.330;-6.288;2023-04-25T11:27:33;101699.97;;;19.88
74750;BMP280;63269;53.330;-6.288;2023-04-25T11:30:10;101699.97;;;19.88
74750;BMP280;63269;53.330;-6.288;2023-04-25T11:32:35;101692.41;;;19.87
74750;BMP280;63269;53.330;-6.288;2023-04-25T11:35:01;101694.69;;;19.85
74750;BMP280;63269;53.330;-6.288;2023-04-25T11:37:26;101694.69;;;19.85
74750;BMP280;63269;53.330;-6.288;2023-04-25T11:39:52;101700.75;;;19.85
74750;BMP280;63269;53.330;-6.288;2023-04-25T11:42:17;101688.59;;;19.84
74750;BMP280;63269;53.330;-6.288;2023-04-25T11:44:43;101686.38;;;19.83
74750;BMP280;63269;53.330;-6.288;2023-04-25T11:47:08;101680.63;;;19.84
74750;BMP280;63269;53.330;-6.288;2023-04-25T11:49:35;101680.63;;;19.84
74750;BMP280;63269;53.330;-6.288;2023-04-25T11:52:00;101681.03;;;19.83
74750;BMP280;63269;53.330;-6.288;2023-04-25T11:54:26;101681.78;;;19.83
74750;BMP280;63269;53.330;-6.288;2023-04-25T11:56:51;101678.78;;;19.81
74750;BMP280;63269;53.330;-6.288;2023-04-25T11:59:23;101681.03;;;19.83
74750;BMP280;63269;53.330;-6.288;2023-04-25T12:01:50;101678.78;;;19.81
74750;BMP280;63269;53.330;-6.288;2023-04-25T12:04:23;101678.78;;;19.81
74750;BMP280;63269;53.330;-6.288;2023-04-25T12:06:53;101679.53;;;19.82
74750;BMP280;63269;53.330;-6.288;2023-04-25T12:09:33;101679.53;;;19.82
74750;BMP280;63269;53.330;-6.288;2023-04-25T12:12:00;101683.00;;;19.79
74750;BMP280;63269;53.330;-6.288;2023-04-25T12:14:34;101683.00;;;19.79
74750;BMP280;63269;53.330;-6.288;2023-04-25T12:17:02;101676.91;;;19.78
74750;BMP280;63269;53.330;-6.288;2023-04-25T12:19:33;101684.47;;;19.80
74750;BMP280;63269;53.330;-6.288;2023-04-25T12:22:03;101684.47;;;19.80
74750;BMP280;63269;53.330;-6.288;2023-04-25T12:24:28;101684.88;;;19.78
74750;BMP280;63269;53.330;-6.288;2023-04-25T12:27:03;101687.19;;;19.76
74750;BMP280;63269;53.330;-6.288;2023-04-25T12:29:31;101687.19;;;19.76
74750;BMP280;63269;53.330;-6.288;2023-04-25T12:31:57;101680.72;;;19.77
74750;BMP280;63269;53.330;-6.288;2023-04-25T12:34:23;101687.94;;;19.76
74750;BMP280;63269;53.330;-6.288;2023-04-25T12:36:51;101682.25;;;19.74
74750;BMP280;63269;53.330;-6.288;2023-04-25T12:39:22;101688.72;;;19.77
74750;BMP280;63269;53.330;-6.288;2023-04-25T12:41:49;101679.22;;;19.76
74750;BMP280;63269;53.330;-6.288;2023-04-25T12:44:14;101681.88;;;19.76
74750;BMP280;63269;53.330;-6.288;2023-04-25T12:46:40;101679.97;;;19.76
74750;BMP280;63269;53.330;-6.288;2023-04-25T12:49:07;101679.59;;;19.74
74750;BMP280;63269;53.330;-6.288;2023-04-25T12:51:33;101679.59;;;19.74
74750;BMP280;63269;53.330;-6.288;2023-04-25T12:54:00;101683.44;;;19.73
74750;BMP280;63269;53.330;-6.288;2023-04-25T12:56:28;101680.03;;;19.73
74750;BMP280;63269;53.330;-6.288;2023-04-25T12:58:54;101679.59;;;19.74
74750;BMP280;63269;53.330;-6.288;2023-04-25T13:01:23;101679.59;;;19.74
74750;BMP280;63269;53.330;-6.288;2023-04-25T13:03:49;101680.78;;;19.73
74750;BMP280;63269;53.330;-6.288;2023-04-25T13:06:16;101672.78;;;19.73
74750;BMP280;63269;53.330;-6.288;2023-04-25T13:08:42;101672.78;;;19.73
74750;BMP280;63269;53.330;-6.288;2023-04-25T13:11:08;101665.94;;;19.72
74750;BMP280;63269;53.330;-6.288;2023-04-25T13:13:33;101665.94;;;19.72
74750;BMP280;63269;53.330;-6.288;2023-04-25T13:16:04;101665.94;;;19.72
74750;BMP280;63269;53.330;-6.288;2023-04-25T13:18:29;101668.22;;;19.74
74750;BMP280;63269;53.330;-6.288;2023-04-25T13:20:55;101674.75;;;19.69
74750;BMP280;63269;53.330;-6.288;2023-04-25T13:23:21;101667.53;;;19.70
74750;BMP280;63269;53.330;-6.288;2023-04-25T13:25:47;101663.66;;;19.71
74750;BMP280;63269;53.330;-6.288;2023-04-25T13:28:13;101678.91;;;19.70
74750;BMP280;63269;53.330;-6.288;2023-04-25T13:30:39;101664.88;;;19.70
74750;BMP280;63269;53.330;-6.288;2023-04-25T13:33:04;101671.66;;;19.71
74750;BMP280;63269;53.330;-6.288;2023-04-25T13:35:32;101671.66;;;19.71
74750;BMP280;63269;53.330;-6.288;2023-04-25T13:37:58;101669.00;;;19.71
74750;BMP280;63269;53.330;-6.288;2023-04-25T13:40:23;101669.00;;;19.71
74750;BMP280;63269;53.330;-6.288;2023-04-25T13:42:48;101662.94;;;19.70
74750;BMP280;63269;53.330;-6.288;2023-04-25T13:45:14;101660.25;;;19.70